sensor_id;sensor_type;location;lat;lon;timestamp;temperature;humidity
14057;DHT22;7103;54.300;10.180;2022-08-01T00:00:46;18.50;99.90
14057;DHT22;7103;54.300;10.180;2022-08-01T00:03:13;18.60;99.90
14057;DHT22;7103;54.300;10.180;2022-08-01T00:05:40;18.50;99.90
14057;DHT22;7103;54.300;10.180;2022-08-01T00:08:10;18.50;99.90
14057;DHT22;7103;54.300;10.180;2022-08-01T00:10:37;18.50;99.90
14057;DHT22;7103;54.300;10.180;2022-08-01T00:13:04;18.50;99.90
14057;DHT22;7103;54.300;10.180;2022-08-01T00:15:31;18.40;99.90
14057;DHT22;7103;54.300;10.180;2022-08-01T00:17:58;18.40;99.90
14057;DHT22;7103;54.300;10.180;2022-08-01T00:20:26;18.40;99.90
14057;DHT22;7103;54.300;10.180;2022-08-01T00:22:53;18.40;99.90
14057;DHT22;7103;54.300;10.180;2022-08-01T00:25:20;18.40;99.90
14057;DHT22;7103;54.300;10.180;2022-08-01T00:28:00;18.50;99.90
14057;DHT22;7103;54.300;10.180;2022-08-01T00:30:27;18.50;99.90
14057;DHT22;7103;54.300;10.180;2022-08-01T00:32:54;18.40;99.90
14057;DHT22;7103;54.300;10.180;2022-08-01T00:35:21;18.40;99.90
14057;DHT22;7103;54.300;10.180;2022-08-01T00:37:48;18.40;1.00
14057;DHT22;7103;54.300;10.180;2022-08-01T00:40:15;18.40;1.00
14057;DHT22;7103;54.300;10.180;2022-08-01T00:42:42;18.40;1.00
14057;DHT22;7103;54.300;10.180;2022-08-01T00:45:10;18.40;1.00
14057;DHT22;7103;54.300;10.180;2022-08-01T00:47:38;18.40;1.00
14057;DHT22;7103;54.300;10.180;2022-08-01T00:50:07;18.40;1.00
14057;DHT22;7103;54.300;10.180;2022-08-01T00:52:34;18.40;1.00
14057;DHT22;7103;54.300;10.180;2022-08-01T00:55:02;18.40;1.00
14057;DHT22;7103;54.300;10.180;2022-08-01T00:57:30;18.40;1.00
14057;DHT22;7103;54.300;10.180;2022-08-01T01:00:17;18.40;1.00
14057;DHT22;7103;54.300;10.180;2022-08-01T01:02:52;18.40;1.00
14057;DHT22;7103;54.300;10.180;2022-08-01T01:05:20;18.40;1.00
14057;DHT22;7103;54.300;10.180;2022-08-01T01:08:04;18.40;1.00
14057;DHT22;7103;54.300;10.180;2022-08-01T01:10:46;18.40;1.00
14057;DHT22;7103;54.300;10.180;2022-08-01T01:13:23;18.40;1.00
14057;DHT22;7103;54.300;10.180;2022-08-01T01:15:59;18.30;1.00
14057;DHT22;7103;54.300;10.180;2022-08-01T01:18:33;18.40;1.00
14057;DHT22;7103;54.300;10.180;2022-08-01T01:27:00;18.40;1.00
14057;DHT22;7103;54.300;10.180;2022-08-01T01:29:35;18.40;1.00
14057;DHT22;7103;54.300;10.180;2022-08-01T01:32:32;18.40;1.00
14057;DHT22;7103;54.300;10.180;2022-08-01T01:35:07;18.40;1.00
14057;DHT22;7103;54.300;10.180;2022-08-01T01:37:38;18.30;1.00
14057;DHT22;7103;54.300;10.180;2022-08-01T01:40:07;18.30;1.00
14057;DHT22;7103;54.300;10.180;2022-08-01T01:42:37;18.30;1.00
14057;DHT22;7103;54.300;10.180;2022-08-01T01:45:07;18.30;1.00
14057;DHT22;7103;54.300;10.180;2022-08-01T01:47:36;18.30;1.00
14057;DHT22;7103;54.300;10.180;2022-08-01T01:50:07;18.30;1.00
14057;DHT22;7103;54.300;10.180;2022-08-01T01:52:36;18.30;1.00
14057;DHT22;7103;54.300;10.180;2022-08-01T01:55:07;18.30;1.00
14057;DHT22;7103;54.300;10.180;2022-08-01T01:57:40;18.30;1.00
14057;DHT22;7103;54.300;10.180;2022-08-01T02:00:09;18.30;1.00
14057;DHT22;7103;54.300;10.180;2022-08-01T02:02:37;18.30;1.00
14057;DHT22;7103;54.300;10.180;2022-08-01T02:05:09;18.40;1.00
14057;DHT22;7103;54.300;10.180;2022-08-01T02:07:37;18.40;1.00
14057;DHT22;7103;54.300;10.180;2022-08-01T02:10:06;18.30;1.00
14057;DHT22;7103;54.300;10.180;2022-08-01T02:12:40;18.30;1.00
14057;DHT22;7103;54.300;10.180;2022-08-01T02:15:08;18.30;1.00
14057;DHT22;7103;54.300;10.180;2022-08-01T02:17:45;18.20;1.00
14057;DHT22;7103;54.300;10.180;2022-08-01T02:20:13;18.20;1.00
14057;DHT22;7103;54.300;10.180;2022-08-01T02:22:50;18.20;1.00
14057;DHT22;7103;54.300;10.180;2022-08-01T02:25:27;18.20;1.00
14057;DHT22;7103;54.300;10.180;2022-08-01T02:28:13;18.20;1.00
14057;DHT22;7103;54.300;10.180;2022-08-01T02:30:44;18.10;1.00
14057;DHT22;7103;54.300;10.180;2022-08-01T02:33:23;18.20;1.00
14057;DHT22;7103;54.300;10.180;2022-08-01T02:35:58;18.20;1.00
14057;DHT22;7103;54.300;10.180;2022-08-01T02:38:46;18.20;1.00
14057;DHT22;7103;54.300;10.180;2022-08-01T02:41:18;18.20;1.00
14057;DHT22;7103;54.300;10.180;2022-08-01T02:43:48;18.10;1.00
14057;DHT22;7103;54.300;10.180;2022-08-01T02:46:42;18.10;1.00
14057;DHT22;7103;54.300;10.180;2022-08-01T02:49:11;18.20;1.00
14057;DHT22;7103;54.300;10.180;2022-08-01T02:51:41;18.10;1.00
14057;DHT22;7103;54.300;10.180;2022-08-01T02:54:10;18.10;1.00
14057;DHT22;7103;54.300;10.180;2022-08-01T02:56:38;18.10;1.00
14057;DHT22;7103;54.300;10.180;2022-08-01T02:59:10;18.20;1.00
14057;DHT22;7103;54.300;10.180;2022-08-01T03:01:41;18.10;1.00
14057;DHT22;7103;54.300;10.180;2022-08-01T03:04:10;18.10;1.00
14057;DHT22;7103;54.300;10.180;2022-08-01T03:06:39;18.00;1.00
14057;DHT22;7103;54.300;10.180;2022-08-01T03:09:11;18.10;1.00
14057;DHT22;7103;54.300;10.180;2022-08-01T03:11:41;18.00;1.00
14057;DHT22;7103;54.300;10.180;2022-08-01T03:14:11;18.00;1.00
14057;DHT22;7103;54.300;10.180;2022-08-01T03:16:41;18.00;1.00
14057;DHT22;7103;54.300;10.180;2022-08-01T03:19:11;18.10;1.00
14057;DHT22;7103;54.300;10.180;2022-08-01T03:21:40;18.20;1.00
14057;DHT22;7103;54.300;10.180;2022-08-01T03:24:10;17.90;1.00
14057;DHT22;7103;54.300;10.180;2022-08-01T03:26:38;17.90;1.00
14057;DHT22;7103;54.300;10.180;2022-08-01T03:29:08;18.00;1.00
14057;DHT22;7103;54.300;10.180;2022-08-01T03:31:38;18.00;1.00
14057;DHT22;7103;54.300;10.180;2022-08-01T03:34:09;18.10;1.00
14057;DHT22;7103;54.300;10.180;2022-08-01T03:37:02;18.00;1.00
14057;DHT22;7103;54.300;10.180;2022-08-01T03:39:34;18.00;1.00
14057;DHT22;7103;54.300;10.180;2022-08-01T03:42:14;18.30;1.00
14057;DHT22;7103;54.300;10.180;2022-08-01T03:44:50;18.20;1.00
14057;DHT22;7103;54.300;10.180;2022-08-01T03:47:22;18.10;1.00
14057;DHT22;7103;54.300;10.180;2022-08-01T03:49:52;18.10;1.00
14057;DHT22;7103;54.300;10.180;2022-08-01T03:52:22;18.20;1.00
14057;DHT22;7103;54.300;10.180;2022-08-01T03:54:56;18.20;1.00
14057;DHT22;7103;54.300;10.180;2022-08-01T03:57:29;18.10;1.00
14057;DHT22;7103;54.300;10.180;2022-08-01T04:00:04;18.20;1.00
14057;DHT22;7103;54.300;10.180;2022-08-01T04:02:34;18.10;1.00
14057;DHT22;7103;54.300;10.180;2022-08-01T04:05:03;18.10;1.00
14057;DHT22;7103;54.300;10.180;2022-08-01T04:07:36;18.10;1.00
14057;DHT22;7103;54.300;10.180;2022-08-01T04:10:10;18.40;1.00
14057;DHT22;7103;54.300;10.180;2022-08-01T04:12:39;18.10;1.00
14057;DHT22;7103;54.300;10.180;2022-08-01T04:15:06;18.10;1.00
14057;DHT22;7103;54.300;10.180;2022-08-01T04:17:39;18.00;1.00
14057;DHT22;7103;54.300;10.180;2022-08-01T04:20:09;17.80;1.00
14057;DHT22;7103;54.300;10.180;2022-08-01T04:22:38;18.10;1.00
14057;DHT22;7103;54.300;10.180;2022-08-01T04:25:11;18.00;1.00
14057;DHT22;7103;54.300;10.180;2022-08-01T04:27:42;18.00;1.00
14057;DHT22;7103;54.300;10.180;2022-08-01T04:30:27;18.00;1.00
14057;DHT22;7103;54.300;10.180;2022-08-01T04:33:00;18.00;1.00
14057;DHT22;7103;54.300;10.180;2022-08-01T04:35:28;18.00;1.00
14057;DHT22;7103;54.300;10.180;2022-08-01T04:38:22;18.00;1.00
14057;DHT22;7103;54.300;10.180;2022-08-01T04:40:52;18.00;1.00
14057;DHT22;7103;54.300;10.180;2022-08-01T04:43:19;18.00;1.00
14057;DHT22;7103;54.300;10.180;2022-08-01T04:45:47;18.00;1.00
14057;DHT22;7103;54.300;10.180;2022-08-01T04:48:17;18.00;1.00
14057;DHT22;7103;54.300;10.180;2022-08-01T04:50:48;17.90;1.00
14057;DHT22;7103;54.300;10.180;2022-08-01T04:53:17;18.00;1.00
14057;DHT22;7103;54.300;10.180;2022-08-01T04:55:46;18.00;1.00
14057;DHT22;7103;54.300;10.180;2022-08-01T04:58:14;18.00;1.00
14057;DHT22;7103;54.300;10.180;2022-08-01T05:00:45;18.00;1.00
14057;DHT22;7103;54.300;10.180;2022-08-01T05:03:12;18.00;1.00
14057;DHT22;7103;54.300;10.180;2022-08-01T05:05:39;18.00;1.00
14057;DHT22;7103;54.300;10.180;2022-08-01T05:08:07;18.00;1.00
14057;DHT22;7103;54.300;10.180;2022-08-01T05:10:34;18.00;1.00
14057;DHT22;7103;54.300;10.180;2022-08-01T05:13:01;18.00;1.00
14057;DHT22;7103;54.300;10.180;2022-08-01T05:15:29;18.00;1.00
14057;DHT22;7103;54.300;10.180;2022-08-01T05:17:56;18.00;1.00
14057;DHT22;7103;54.300;10.180;2022-08-01T05:20:24;18.00;1.00
14057;DHT22;7103;54.300;10.180;2022-08-01T05:22:51;18.20;1.00
14057;DHT22;7103;54.300;10.180;2022-08-01T05:25:19;18.00;1.00
14057;DHT22;7103;54.300;10.180;2022-08-01T05:28:06;18.20;1.00
14057;DHT22;7103;54.300;10.180;2022-08-01T05:30:34;18.00;1.00
14057;DHT22;7103;54.300;10.180;2022-08-01T05:33:01;18.10;1.00
14057;DHT22;7103;54.300;10.180;2022-08-01T05:35:28;18.00;1.00
14057;DHT22;7103;54.300;10.180;2022-08-01T05:38:15;18.00;1.00
14057;DHT22;7103;54.300;10.180;2022-08-01T05:40:42;18.00;1.00
14057;DHT22;7103;54.300;10.180;2022-08-01T05:43:10;18.10;1.00
14057;DHT22;7103;54.300;10.180;2022-08-01T05:45:37;18.10;1.00
14057;DHT22;7103;54.300;10.180;2022-08-01T05:48:04;18.10;1.00
14057;DHT22;7103;54.300;10.180;2022-08-01T05:50:32;18.20;1.00
14057;DHT22;7103;54.300;10.180;2022-08-01T05:52:59;18.20;1.00
14057;DHT22;7103;54.300;10.180;2022-08-01T05:55:26;18.20;1.00
14057;DHT22;7103;54.300;10.180;2022-08-01T05:57:55;18.20;1.00
14057;DHT22;7103;54.300;10.180;2022-08-01T06:00:22;18.10;1.00
14057;DHT22;7103;54.300;10.180;2022-08-01T06:02:49;18.20;1.00
14057;DHT22;7103;54.300;10.180;2022-08-01T06:05:16;18.30;1.00
14057;DHT22;7103;54.300;10.180;2022-08-01T06:07:43;18.40;1.00
14057;DHT22;7103;54.300;10.180;2022-08-01T06:10:11;18.30;1.00
14057;DHT22;7103;54.300;10.180;2022-08-01T06:12:39;19.10;1.00
14057;DHT22;7103;54.300;10.180;2022-08-01T06:15:06;18.30;1.00
14057;DHT22;7103;54.300;10.180;2022-08-01T06:17:34;18.50;1.00
14057;DHT22;7103;54.300;10.180;2022-08-01T06:20:01;18.30;1.00
14057;DHT22;7103;54.300;10.180;2022-08-01T06:22:29;18.40;1.00
14057;DHT22;7103;54.300;10.180;2022-08-01T06:24:57;18.30;1.00
14057;DHT22;7103;54.300;10.180;2022-08-01T06:27:24;18.40;1.00
14057;DHT22;7103;54.300;10.180;2022-08-01T06:29:57;18.40;1.00
14057;DHT22;7103;54.300;10.180;2022-08-01T06:32:29;18.70;1.00
14057;DHT22;7103;54.300;10.180;2022-08-01T06:34:56;18.40;1.00
14057;DHT22;7103;54.300;10.180;2022-08-01T06:37:23;18.50;1.00
14057;DHT22;7103;54.300;10.180;2022-08-01T06:39:53;18.20;1.00
14057;DHT22;7103;54.300;10.180;2022-08-01T06:42:21;18.50;1.00
14057;DHT22;7103;54.300;10.180;2022-08-01T06:44:48;18.30;1.00
14057;DHT22;7103;54.300;10.180;2022-08-01T06:47:15;18.30;1.00
14057;DHT22;7103;54.300;10.180;2022-08-01T06:49:43;18.40;1.00
14057;DHT22;7103;54.300;10.180;2022-08-01T06:52:10;17.20;1.00
14057;DHT22;7103;54.300;10.180;2022-08-01T06:54:38;18.10;1.00
14057;DHT22;7103;54.300;10.180;2022-08-01T06:57:06;18.00;99.90
14057;DHT22;7103;54.300;10.180;2022-08-01T06:59:33;18.00;99.90
14057;DHT22;7103;54.300;10.180;2022-08-01T07:02:00;17.90;99.90
14057;DHT22;7103;54.300;10.180;2022-08-01T07:04:30;17.80;99.90
14057;DHT22;7103;54.300;10.180;2022-08-01T07:06:58;17.90;99.90
14057;DHT22;7103;54.300;10.180;2022-08-01T07:09:25;17.90;99.90
14057;DHT22;7103;54.300;10.180;2022-08-01T07:11:53;17.90;99.90
14057;DHT22;7103;54.300;10.180;2022-08-01T07:14:23;17.80;99.90
14057;DHT22;7103;54.300;10.180;2022-08-01T07:16:51;17.80;99.90
14057;DHT22;7103;54.300;10.180;2022-08-01T07:19:18;17.70;99.90
14057;DHT22;7103;54.300;10.180;2022-08-01T07:21:45;17.70;99.90
14057;DHT22;7103;54.300;10.180;2022-08-01T07:24:16;17.70;99.90
14057;DHT22;7103;54.300;10.180;2022-08-01T07:26:47;17.70;99.90
14057;DHT22;7103;54.300;10.180;2022-08-01T07:29:21;17.50;99.90
14057;DHT22;7103;54.300;10.180;2022-08-01T07:31:49;17.80;99.90
14057;DHT22;7103;54.300;10.180;2022-08-01T07:34:20;18.00;99.90
14057;DHT22;7103;54.300;10.180;2022-08-01T07:36:47;18.00;99.90
14057;DHT22;7103;54.300;10.180;2022-08-01T07:39:14;18.30;99.90
14057;DHT22;7103;54.300;10.180;2022-08-01T07:41:41;18.70;99.90
14057;DHT22;7103;54.300;10.180;2022-08-01T07:44:28;19.70;99.00
14057;DHT22;7103;54.300;10.180;2022-08-01T07:46:55;20.50;7.10
14057;DHT22;7103;54.300;10.180;2022-08-01T07:49:22;20.40;1.00
14057;DHT22;7103;54.300;10.180;2022-08-01T07:51:52;20.00;1.00
14057;DHT22;7103;54.300;10.180;2022-08-01T07:54:31;19.70;1.00
14057;DHT22;7103;54.300;10.180;2022-08-01T07:57:00;19.60;1.00
14057;DHT22;7103;54.300;10.180;2022-08-01T07:59:30;19.50;1.00
14057;DHT22;7103;54.300;10.180;2022-08-01T08:01:58;20.00;1.00
14057;DHT22;7103;54.300;10.180;2022-08-01T08:04:27;20.30;1.00
14057;DHT22;7103;54.300;10.180;2022-08-01T08:06:54;20.20;1.00
14057;DHT22;7103;54.300;10.180;2022-08-01T08:09:22;20.10;1.00
14057;DHT22;7103;54.300;10.180;2022-08-01T08:11:49;20.80;1.00
14057;DHT22;7103;54.300;10.180;2022-08-01T08:14:17;21.60;1.00
14057;DHT22;7103;54.300;10.180;2022-08-01T08:16:45;21.30;1.00
14057;DHT22;7103;54.300;10.180;2022-08-01T08:19:14;21.30;1.00
14057;DHT22;7103;54.300;10.180;2022-08-01T08:21:45;21.90;1.00
14057;DHT22;7103;54.300;10.180;2022-08-01T08:24:13;21.80;1.00
14057;DHT22;7103;54.300;10.180;2022-08-01T08:26:57;21.80;1.00
14057;DHT22;7103;54.300;10.180;2022-08-01T08:29:25;22.10;1.00
14057;DHT22;7103;54.300;10.180;2022-08-01T08:31:54;22.80;1.00
14057;DHT22;7103;54.300;10.180;2022-08-01T08:34:23;23.20;1.00
14057;DHT22;7103;54.300;10.180;2022-08-01T08:36:51;23.50;1.00
14057;DHT22;7103;54.300;10.180;2022-08-01T08:39:19;23.70;1.00
14057;DHT22;7103;54.300;10.180;2022-08-01T08:41:49;24.00;1.00
14057;DHT22;7103;54.300;10.180;2022-08-01T08:44:18;24.30;1.00
14057;DHT22;7103;54.300;10.180;2022-08-01T08:46:47;24.10;1.00
14057;DHT22;7103;54.300;10.180;2022-08-01T08:49:21;24.40;1.00
14057;DHT22;7103;54.300;10.180;2022-08-01T08:51:50;24.60;1.00
14057;DHT22;7103;54.300;10.180;2022-08-01T08:54:22;24.80;1.00
14057;DHT22;7103;54.300;10.180;2022-08-01T08:56:58;24.60;1.00
14057;DHT22;7103;54.300;10.180;2022-08-01T08:59:26;24.80;1.00
14057;DHT22;7103;54.300;10.180;2022-08-01T09:01:56;24.80;1.00
14057;DHT22;7103;54.300;10.180;2022-08-01T09:04:25;24.90;1.00
14057;DHT22;7103;54.300;10.180;2022-08-01T09:06:53;24.80;1.00
14057;DHT22;7103;54.300;10.180;2022-08-01T09:09:22;25.00;1.00
14057;DHT22;7103;54.300;10.180;2022-08-01T09:11:49;25.50;1.00
14057;DHT22;7103;54.300;10.180;2022-08-01T09:14:24;25.70;1.00
14057;DHT22;7103;54.300;10.180;2022-08-01T09:17:08;25.50;1.00
14057;DHT22;7103;54.300;10.180;2022-08-01T09:19:45;25.10;1.00
14057;DHT22;7103;54.300;10.180;2022-08-01T09:22:19;25.20;1.00
14057;DHT22;7103;54.300;10.180;2022-08-01T09:25:17;25.40;1.00
14057;DHT22;7103;54.300;10.180;2022-08-01T09:27:44;25.10;1.00
14057;DHT22;7103;54.300;10.180;2022-08-01T09:30:17;25.40;1.00
14057;DHT22;7103;54.300;10.180;2022-08-01T09:33:00;25.00;1.00
14057;DHT22;7103;54.300;10.180;2022-08-01T09:35:54;24.90;1.00
14057;DHT22;7103;54.300;10.180;2022-08-01T09:38:23;25.60;1.00
14057;DHT22;7103;54.300;10.180;2022-08-01T09:41:34;25.80;1.00
14057;DHT22;7103;54.300;10.180;2022-08-01T09:44:06;26.00;1.00
14057;DHT22;7103;54.300;10.180;2022-08-01T09:46:34;25.80;1.00
14057;DHT22;7103;54.300;10.180;2022-08-01T09:49:04;26.10;1.00
14057;DHT22;7103;54.300;10.180;2022-08-01T09:51:38;26.60;1.00
14057;DHT22;7103;54.300;10.180;2022-08-01T09:54:33;26.60;1.00
14057;DHT22;7103;54.300;10.180;2022-08-01T09:57:12;26.20;1.00
14057;DHT22;7103;54.300;10.180;2022-08-01T09:59:41;26.30;1.00
14057;DHT22;7103;54.300;10.180;2022-08-01T10:02:34;26.50;1.00
14057;DHT22;7103;54.300;10.180;2022-08-01T10:05:04;26.60;1.00
14057;DHT22;7103;54.300;10.180;2022-08-01T10:07:35;26.70;1.00
14057;DHT22;7103;54.300;10.180;2022-08-01T10:10:14;26.80;1.00
14057;DHT22;7103;54.300;10.180;2022-08-01T10:12:43;26.90;1.00
14057;DHT22;7103;54.300;10.180;2022-08-01T10:15:14;26.80;1.00
14057;DHT22;7103;54.300;10.180;2022-08-01T10:17:53;26.70;1.00
14057;DHT22;7103;54.300;10.180;2022-08-01T10:20:33;26.30;1.00
14057;DHT22;7103;54.300;10.180;2022-08-01T10:23:02;26.70;1.00
14057;DHT22;7103;54.300;10.180;2022-08-01T10:25:39;26.80;1.00
14057;DHT22;7103;54.300;10.180;2022-08-01T10:28:16;27.20;1.00
14057;DHT22;7103;54.300;10.180;2022-08-01T10:30:50;27.20;1.00
14057;DHT22;7103;54.300;10.180;2022-08-01T10:33:22;27.50;1.00
14057;DHT22;7103;54.300;10.180;2022-08-01T10:36:10;27.40;1.00
14057;DHT22;7103;54.300;10.180;2022-08-01T10:38:37;27.20;1.00
14057;DHT22;7103;54.300;10.180;2022-08-01T10:41:05;27.10;1.00
14057;DHT22;7103;54.300;10.180;2022-08-01T10:43:35;26.70;1.00
14057;DHT22;7103;54.300;10.180;2022-08-01T10:46:04;26.60;1.00
14057;DHT22;7103;54.300;10.180;2022-08-01T10:51:18;26.40;1.00
14057;DHT22;7103;54.300;10.180;2022-08-01T10:53:50;26.30;1.00
14057;DHT22;7103;54.300;10.180;2022-08-01T10:56:45;26.60;1.00
14057;DHT22;7103;54.300;10.180;2022-08-01T10:59:24;26.70;1.00
14057;DHT22;7103;54.300;10.180;2022-08-01T11:02:26;26.90;1.00
14057;DHT22;7103;54.300;10.180;2022-08-01T11:05:02;26.70;1.00
14057;DHT22;7103;54.300;10.180;2022-08-01T11:07:47;26.70;1.00
14057;DHT22;7103;54.300;10.180;2022-08-01T11:10:25;26.80;1.00
14057;DHT22;7103;54.300;10.180;2022-08-01T11:12:55;27.00;1.00
14057;DHT22;7103;54.300;10.180;2022-08-01T11:15:23;26.80;1.00
14057;DHT22;7103;54.300;10.180;2022-08-01T11:17:57;26.50;1.00
14057;DHT22;7103;54.300;10.180;2022-08-01T11:20:31;26.60;1.00
14057;DHT22;7103;54.300;10.180;2022-08-01T11:28:26;26.70;1.00
14057;DHT22;7103;54.300;10.180;2022-08-01T11:38:48;26.70;1.00
14057;DHT22;7103;54.300;10.180;2022-08-01T11:41:20;27.00;1.00
14057;DHT22;7103;54.300;10.180;2022-08-01T11:46:51;26.50;1.00
14057;DHT22;7103;54.300;10.180;2022-08-01T11:52:23;26.10;1.00
14057;DHT22;7103;54.300;10.180;2022-08-01T11:57:28;25.90;1.00
14057;DHT22;7103;54.300;10.180;2022-08-01T12:02:43;26.10;1.00
14057;DHT22;7103;54.300;10.180;2022-08-01T12:05:13;26.30;1.00
14057;DHT22;7103;54.300;10.180;2022-08-01T12:07:42;26.40;1.00
14057;DHT22;7103;54.300;10.180;2022-08-01T12:10:15;26.50;1.00
14057;DHT22;7103;54.300;10.180;2022-08-01T12:12:51;26.60;1.00
14057;DHT22;7103;54.300;10.180;2022-08-01T12:15:20;26.60;1.00
14057;DHT22;7103;54.300;10.180;2022-08-01T12:17:55;26.30;1.00
14057;DHT22;7103;54.300;10.180;2022-08-01T12:20:33;26.30;1.00
14057;DHT22;7103;54.300;10.180;2022-08-01T12:23:05;26.40;1.00
14057;DHT22;7103;54.300;10.180;2022-08-01T12:25:34;26.40;1.00
14057;DHT22;7103;54.300;10.180;2022-08-01T12:28:03;26.60;1.00
14057;DHT22;7103;54.300;10.180;2022-08-01T12:30:31;26.40;1.00
14057;DHT22;7103;54.300;10.180;2022-08-01T12:33:06;26.60;1.00
14057;DHT22;7103;54.300;10.180;2022-08-01T12:35:35;26.80;1.00
14057;DHT22;7103;54.300;10.180;2022-08-01T12:38:05;26.60;1.00
14057;DHT22;7103;54.300;10.180;2022-08-01T12:40:35;26.50;1.00
14057;DHT22;7103;54.300;10.180;2022-08-01T12:43:07;26.50;1.00
14057;DHT22;7103;54.300;10.180;2022-08-01T12:45:43;26.30;1.00
14057;DHT22;7103;54.300;10.180;2022-08-01T12:48:23;26.20;1.00
14057;DHT22;7103;54.300;10.180;2022-08-01T12:50:51;25.90;1.00
14057;DHT22;7103;54.300;10.180;2022-08-01T12:53:20;25.50;1.00
14057;DHT22;7103;54.300;10.180;2022-08-01T12:55:50;25.90;1.00
14057;DHT22;7103;54.300;10.180;2022-08-01T12:58:31;24.50;1.00
14057;DHT22;7103;54.300;10.180;2022-08-01T13:01:07;25.80;1.00
14057;DHT22;7103;54.300;10.180;2022-08-01T13:03:35;26.00;1.00
14057;DHT22;7103;54.300;10.180;2022-08-01T13:06:11;26.00;1.00
14057;DHT22;7103;54.300;10.180;2022-08-01T13:08:39;25.80;1.00
14057;DHT22;7103;54.300;10.180;2022-08-01T13:11:08;25.70;1.00
14057;DHT22;7103;54.300;10.180;2022-08-01T13:13:45;25.90;1.00
14057;DHT22;7103;54.300;10.180;2022-08-01T13:16:17;25.80;1.00
14057;DHT22;7103;54.300;10.180;2022-08-01T13:19:00;25.80;1.00
14057;DHT22;7103;54.300;10.180;2022-08-01T13:21:28;25.70;1.00
14057;DHT22;7103;54.300;10.180;2022-08-01T13:24:16;25.60;1.00
14057;DHT22;7103;54.300;10.180;2022-08-01T13:26:49;25.50;1.00
14057;DHT22;7103;54.300;10.180;2022-08-01T13:29:23;25.60;1.00
14057;DHT22;7103;54.300;10.180;2022-08-01T13:31:55;25.30;1.00
14057;DHT22;7103;54.300;10.180;2022-08-01T13:34:34;25.60;1.00
14057;DHT22;7103;54.300;10.180;2022-08-01T13:37:01;25.60;1.00
14057;DHT22;7103;54.300;10.180;2022-08-01T13:39:29;26.00;1.00
14057;DHT22;7103;54.300;10.180;2022-08-01T13:42:10;25.90;1.00
14057;DHT22;7103;54.300;10.180;2022-08-01T13:44:45;25.70;1.00
14057;DHT22;7103;54.300;10.180;2022-08-01T13:47:12;25.30;1.00
14057;DHT22;7103;54.300;10.180;2022-08-01T13:49:41;25.20;1.00
14057;DHT22;7103;54.300;10.180;2022-08-01T13:52:09;25.20;1.00
14057;DHT22;7103;54.300;10.180;2022-08-01T13:54:37;25.30;1.00
14057;DHT22;7103;54.300;10.180;2022-08-01T13:57:04;25.30;1.00
14057;DHT22;7103;54.300;10.180;2022-08-01T13:59:31;25.40;1.00
14057;DHT22;7103;54.300;10.180;2022-08-01T14:01:58;25.30;1.00
14057;DHT22;7103;54.300;10.180;2022-08-01T14:04:25;25.10;1.00
14057;DHT22;7103;54.300;10.180;2022-08-01T14:06:52;25.00;1.00
14057;DHT22;7103;54.300;10.180;2022-08-01T14:09:20;25.00;1.00
14057;DHT22;7103;54.300;10.180;2022-08-01T14:11:58;24.80;1.00
14057;DHT22;7103;54.300;10.180;2022-08-01T14:14:25;24.70;1.00
14057;DHT22;7103;54.300;10.180;2022-08-01T14:16:53;24.80;1.00
14057;DHT22;7103;54.300;10.180;2022-08-01T14:19:21;24.90;1.00
14057;DHT22;7103;54.300;10.180;2022-08-01T14:22:03;24.90;1.00
14057;DHT22;7103;54.300;10.180;2022-08-01T14:24:30;24.80;1.00
14057;DHT22;7103;54.300;10.180;2022-08-01T14:26:59;24.80;1.00
14057;DHT22;7103;54.300;10.180;2022-08-01T14:29:26;24.70;1.00
14057;DHT22;7103;54.300;10.180;2022-08-01T14:32:14;24.70;1.00
14057;DHT22;7103;54.300;10.180;2022-08-01T14:34:41;24.70;1.00
14057;DHT22;7103;54.300;10.180;2022-08-01T14:37:08;24.80;1.00
14057;DHT22;7103;54.300;10.180;2022-08-01T14:39:35;24.70;1.00
14057;DHT22;7103;54.300;10.180;2022-08-01T14:42:03;24.60;1.00
14057;DHT22;7103;54.300;10.180;2022-08-01T14:44:32;24.40;1.00
14057;DHT22;7103;54.300;10.180;2022-08-01T14:47:01;24.30;1.00
14057;DHT22;7103;54.300;10.180;2022-08-01T14:49:46;24.40;1.00
14057;DHT22;7103;54.300;10.180;2022-08-01T14:52:14;24.40;1.00
14057;DHT22;7103;54.300;10.180;2022-08-01T14:54:41;24.70;1.00
14057;DHT22;7103;54.300;10.180;2022-08-01T14:57:09;24.60;1.00
14057;DHT22;7103;54.300;10.180;2022-08-01T14:59:36;24.60;1.00
14057;DHT22;7103;54.300;10.180;2022-08-01T15:02:03;24.50;1.00
14057;DHT22;7103;54.300;10.180;2022-08-01T15:04:31;24.40;1.00
14057;DHT22;7103;54.300;10.180;2022-08-01T15:06:58;24.10;1.00
14057;DHT22;7103;54.300;10.180;2022-08-01T15:09:26;24.20;1.00
14057;DHT22;7103;54.300;10.180;2022-08-01T15:11:53;24.10;1.00
14057;DHT22;7103;54.300;10.180;2022-08-01T15:14:20;24.10;1.00
14057;DHT22;7103;54.300;10.180;2022-08-01T15:17:05;24.00;1.00
14057;DHT22;7103;54.300;10.180;2022-08-01T15:19:34;24.00;1.00
14057;DHT22;7103;54.300;10.180;2022-08-01T15:22:07;23.90;1.00
14057;DHT22;7103;54.300;10.180;2022-08-01T15:24:35;23.80;1.00
14057;DHT22;7103;54.300;10.180;2022-08-01T15:27:10;23.90;1.00
14057;DHT22;7103;54.300;10.180;2022-08-01T15:29:44;23.90;1.00
14057;DHT22;7103;54.300;10.180;2022-08-01T15:32:12;23.70;1.00
14057;DHT22;7103;54.300;10.180;2022-08-01T15:34:40;23.80;1.00
14057;DHT22;7103;54.300;10.180;2022-08-01T15:37:09;23.70;1.00
14057;DHT22;7103;54.300;10.180;2022-08-01T15:39:38;23.80;1.00
14057;DHT22;7103;54.300;10.180;2022-08-01T15:42:11;23.60;1.00
14057;DHT22;7103;54.300;10.180;2022-08-01T15:44:45;23.40;1.00
14057;DHT22;7103;54.300;10.180;2022-08-01T15:47:12;23.30;1.00
14057;DHT22;7103;54.300;10.180;2022-08-01T15:49:39;23.30;1.00
14057;DHT22;7103;54.300;10.180;2022-08-01T15:52:07;23.20;1.00
14057;DHT22;7103;54.300;10.180;2022-08-01T15:54:49;23.10;1.00
14057;DHT22;7103;54.300;10.180;2022-08-01T15:57:16;23.10;1.00
14057;DHT22;7103;54.300;10.180;2022-08-01T15:59:43;23.00;1.00
14057;DHT22;7103;54.300;10.180;2022-08-01T16:02:11;23.00;1.00
14057;DHT22;7103;54.300;10.180;2022-08-01T16:04:38;23.00;1.00
14057;DHT22;7103;54.300;10.180;2022-08-01T16:07:05;23.10;1.00
14057;DHT22;7103;54.300;10.180;2022-08-01T16:09:32;23.40;1.00
14057;DHT22;7103;54.300;10.180;2022-08-01T16:12:00;23.30;1.00
14057;DHT22;7103;54.300;10.180;2022-08-01T16:14:27;23.30;1.00
14057;DHT22;7103;54.300;10.180;2022-08-01T16:16:54;23.30;1.00
14057;DHT22;7103;54.300;10.180;2022-08-01T16:19:21;23.20;1.00
14057;DHT22;7103;54.300;10.180;2022-08-01T16:21:49;23.00;1.00
14057;DHT22;7103;54.300;10.180;2022-08-01T16:24:18;22.80;1.00
14057;DHT22;7103;54.300;10.180;2022-08-01T16:26:45;22.60;1.00
14057;DHT22;7103;54.300;10.180;2022-08-01T16:29:12;22.40;1.00
14057;DHT22;7103;54.300;10.180;2022-08-01T16:31:39;22.40;1.00
14057;DHT22;7103;54.300;10.180;2022-08-01T16:34:25;22.40;1.00
14057;DHT22;7103;54.300;10.180;2022-08-01T16:36:52;22.40;1.00
14057;DHT22;7103;54.300;10.180;2022-08-01T16:39:21;22.40;1.00
14057;DHT22;7103;54.300;10.180;2022-08-01T16:41:50;22.30;1.00
14057;DHT22;7103;54.300;10.180;2022-08-01T16:44:22;22.20;1.00